地図

経路データ

SID SEASON NUMBER BASIN SUBBASIN NAME ISO_TIME NATURE LAT LON WMO_WIND WMO_PRES WMO_AGENCY TRACK_TYPE DIST2LAND LANDFALL IFLAG USA_AGENCY USA_ATCF_ID USA_LAT USA_LON USA_RECORD USA_STATUS USA_WIND USA_PRES USA_SSHS USA_R34_NE USA_R34_SE USA_R34_SW USA_R34_NW USA_R50_NE USA_R50_SE USA_R50_SW USA_R50_NW USA_R64_NE USA_R64_SE USA_R64_SW USA_R64_NW USA_POCI USA_ROCI USA_RMW USA_EYE TOKYO_LAT TOKYO_LON TOKYO_GRADE TOKYO_WIND TOKYO_PRES TOKYO_R50_DIR TOKYO_R50_LONG TOKYO_R50_SHORT TOKYO_R30_DIR TOKYO_R30_LONG TOKYO_R30_SHORT TOKYO_LAND CMA_LAT CMA_LON CMA_CAT CMA_WIND CMA_PRES HKO_LAT HKO_LON HKO_CAT HKO_WIND HKO_PRES NEWDELHI_LAT NEWDELHI_LON NEWDELHI_GRADE NEWDELHI_WIND NEWDELHI_PRES NEWDELHI_CI NEWDELHI_DP NEWDELHI_POCI REUNION_LAT REUNION_LON REUNION_TYPE REUNION_WIND REUNION_PRES REUNION_TNUM REUNION_CI REUNION_RMW REUNION_R34_NE REUNION_R34_SE REUNION_R34_SW REUNION_R34_NW REUNION_R50_NE REUNION_R50_SE REUNION_R50_SW REUNION_R50_NW REUNION_R64_NE REUNION_R64_SE REUNION_R64_SW REUNION_R64_NW BOM_LAT BOM_LON BOM_TYPE BOM_WIND BOM_PRES BOM_TNUM BOM_CI BOM_RMW BOM_R34_NE BOM_R34_SE BOM_R34_SW BOM_R34_NW BOM_R50_NE BOM_R50_SE BOM_R50_SW BOM_R50_NW BOM_R64_NE BOM_R64_SE BOM_R64_SW BOM_R64_NW BOM_ROCI BOM_POCI BOM_EYE BOM_POS_METHOD BOM_PRES_METHOD NADI_LAT NADI_LON NADI_CAT NADI_WIND NADI_PRES WELLINGTON_LAT WELLINGTON_LON WELLINGTON_WIND WELLINGTON_PRES DS824_LAT DS824_LON DS824_STAGE DS824_WIND DS824_PRES TD9636_LAT TD9636_LON TD9636_STAGE TD9636_WIND TD9636_PRES TD9635_LAT TD9635_LON TD9635_WIND TD9635_PRES TD9635_ROCI NEUMANN_LAT NEUMANN_LON NEUMANN_CLASS NEUMANN_WIND NEUMANN_PRES MLC_LAT MLC_LON MLC_CLASS MLC_WIND MLC_PRES USA_GUST BOM_GUST BOM_GUST_PER REUNION_GUST REUNION_GUST_PER USA_SEAHGT USA_SEARAD_NE USA_SEARAD_SE USA_SEARAD_SW USA_SEARAD_NW STORM_SPEED STORM_DIR
1894181N16112 1894 25 WP MM NOT_NAMED 1894-06-29 16:00:00 NR 16.3000 112.300 main 335 256 __________O___ -1 16.3000 112.300 7 22 329
1894181N16112 1894 25 WP MM NOT_NAMED 1894-06-29 18:00:00 NR 16.9243 111.907 main 256 138 __________P___ -1 16.9243 111.907 7 22 329
1894181N16112 1894 25 WP MM NOT_NAMED 1894-06-29 21:00:00 NR 17.8386 111.344 main 138 43 __________P___ -1 17.8386 111.344 7 20 330
1894181N16112 1894 25 WP MM NOT_NAMED 1894-06-30 00:00:00 NR 18.6971 110.854 main 43 0 __________P___ -1 18.6971 110.854 7 18 334
1894181N16112 1894 25 WP MM NOT_NAMED 1894-06-30 03:00:00 NR 19.4680 110.486 main 0 0 __________P___ -1 19.4680 110.486 7 16 337
1894181N16112 1894 25 WP MM NOT_NAMED 1894-06-30 04:00:00 NR 19.7000 110.400 main 0 0 __________O___ -1 19.7000 110.400 4 14 344
1894181N16112 1894 25 WP MM NOT_NAMED 1894-06-30 06:00:00 NR 20.1229 110.288 main 11 0 __________P___ -1 20.1229 110.288 4 12 352
1894181N16112 1894 25 WP MM NOT_NAMED 1894-06-30 09:00:00 NR 20.6699 110.254 main 0 0 __________P___ -1 20.6699 110.254 4 10 3
1894181N16112 1894 25 WP MM NOT_NAMED 1894-06-30 12:00:00 NR 21.1398 110.346 main 0 0 __________P___ -1 21.1398 110.346 4 9 16
1894181N16112 1894 25 WP MM NOT_NAMED 1894-06-30 15:00:00 NR 21.5637 110.527 main 0 0 __________P___ -1 21.5637 110.527 4 9 23
1894181N16112 1894 25 WP MM NOT_NAMED 1894-06-30 16:00:00 NR 21.7000 110.600 main 0 0 __________O___ -1 21.7000 110.600 4 9 21
1894181N16112 1894 25 WP MM NOT_NAMED 1894-06-30 18:00:00 NR 21.9970 110.701 main 0 0 __________P___ -1 21.9970 110.701 4 9 22
1894181N16112 1894 25 WP MM NOT_NAMED 1894-06-30 21:00:00 NR 22.4174 110.908 main 0 0 __________P___ -1 22.4174 110.908 4 9 29
1894181N16112 1894 25 WP MM NOT_NAMED 1894-07-01 00:00:00 NR 22.8110 111.191 main 0 0 __________P___ -1 22.8110 111.191 4 10 38
1894181N16112 1894 25 WP MM NOT_NAMED 1894-07-01 03:00:00 NR 23.1812 111.557 main 0 0 __________P___ -1 23.1812 111.557 4 10 44
1894181N16112 1894 25 WP MM NOT_NAMED 1894-07-01 04:00:00 NR 23.3000 111.700 main 0 0 __________O___ -1 23.3000 111.700 4 11 49
1894181N16112 1894 25 WP MM NOT_NAMED 1894-07-01 06:00:00 NR 23.5473 112.012 main 0 0 __________P___ -1 23.5473 112.012 4 12 53
1894181N16112 1894 25 WP MM NOT_NAMED 1894-07-01 09:00:00 NR 23.8992 112.555 main 0 0 __________P___ -1 23.8992 112.555 4 13 57
1894181N16112 1894 25 WP MM NOT_NAMED 1894-07-01 12:00:00 NR 24.2229 113.160 main 0 0 __________P___ -1 24.2229 113.160 4 13 61
1894181N16112 1894 25 WP MM NOT_NAMED 1894-07-01 15:00:00 NR 24.5122 113.790 main 0 0 __________P___ -1 24.5122 113.790 4 13 64
1894181N16112 1894 25 WP MM NOT_NAMED 1894-07-01 16:00:00 NR 24.6000 114.000 main 0 0 __________O___ -1 24.6000 114.000 4 12 66
1894181N16112 1894 25 WP MM NOT_NAMED 1894-07-01 18:00:00 NR 24.7624 114.414 main 0 0 __________P___ -1 24.7624 114.414 4 12 68
1894181N16112 1894 25 WP MM NOT_NAMED 1894-07-01 21:00:00 NR 24.9778 115.020 main 0 0 __________P___ -1 24.9778 115.020 4 12 70
1894181N16112 1894 25 WP MM NOT_NAMED 1894-07-02 00:00:00 NR 25.1682 115.615 main 0 0 __________P___ -1 25.1682 115.615 4 11 71
1894181N16112 1894 25 WP MM NOT_NAMED 1894-07-02 03:00:00 NR 25.3433 116.204 main 0 0 __________P___ -1 25.3433 116.204 4 11 72
1894181N16112 1894 25 WP MM NOT_NAMED 1894-07-02 04:00:00 NR 25.4000 116.400 main 0 __________O___ -1 25.4000 116.400 7 11 72

デジタル台風データ・検索

IBTrACS Databaseについて

本データベースは、米国NOAAが公開する1842年以降の世界の熱帯低気圧のベストトラックデータアーカイブInternational Best Track Archive for Climate Stewardship (IBTrACS)を、ウェブで閲覧しやすい形式に変換したものです。

最終更新日:2021-12-06